Time;durP1;ratioP1;P1;durP2;ratioP2;P2;SDS_P1;SDS_P2;PMS_P1;PMS_P2;Temp;Humidity;BMP_temperature;BMP_pressure;BME280_temperature;BME280_humidity;BME280_pressure;Samples;Min_cycle;Max_cycle;Signal;HPM_P1;HPM_P2
2023/03/24 00:02:18;;;;;;;9.23;5.97;;;9.90;99.90;;;;;;5029247;28;20039;-68
2023/03/24 00:04:46;;;;;;;9.63;6.82;;;9.90;99.90;;;;;;5052145;28;20098;-68
2023/03/24 00:07:13;;;;;;;9.27;6.03;;;9.90;99.90;;;;;;5045407;28;20044;-68
2023/03/24 00:09:41;;;;;;;7.95;5.40;;;10.00;99.90;;;;;;5054041;28;20052;-68
2023/03/24 00:12:08;;;;;;;8.10;5.63;;;10.20;99.90;;;;;;5051610;28;20063;-68
2023/03/24 00:14:37;;;;;;;7.00;5.25;;;10.40;99.90;;;;;;5045794;28;20744;-68
2023/03/24 00:17:04;;;;;;;7.78;4.95;;;10.60;99.90;;;;;;5047172;28;20039;-68
2023/03/24 00:19:32;;;;;;;7.85;5.80;;;10.60;99.90;;;;;;5053312;28;20094;-67
2023/03/24 00:21:59;;;;;;;7.45;4.95;;;10.70;99.90;;;;;;5049847;28;20032;-68
2023/03/24 00:24:26;;;;;;;7.22;5.35;;;10.60;99.90;;;;;;5052812;28;20344;-67
2023/03/24 00:26:51;;;;;;;6.55;4.68;;;10.60;99.90;;;;;;5052666;28;20044;-85
2023/03/24 00:29:17;;;;;;;5.60;4.82;;;10.30;99.90;;;;;;5053648;28;20114;-69
2023/03/24 00:31:43;;;;;;;12.60;7.50;;;10.20;99.90;;;;;;5046666;28;20040;-69
2023/03/24 00:34:09;;;;;;;10.63;8.20;;;10.20;99.90;;;;;;5050820;28;20041;-69
2023/03/24 00:36:35;;;;;;;7.63;6.55;;;10.30;99.90;;;;;;5051629;28;20059;-69
2023/03/24 00:39:03;;;;;;;6.65;5.07;;;10.50;99.90;;;;;;5053892;28;20041;-68
2023/03/24 00:41:29;;;;;;;4.70;4.30;;;10.40;99.90;;;;;;5053299;28;20040;-68
2023/03/24 00:43:57;;;;;;;6.05;4.30;;;10.30;99.90;;;;;;5053971;28;20111;-67
2023/03/24 00:46:26;;;;;;;6.18;4.10;;;10.10;99.90;;;;;;5049634;28;20044;-68
2023/03/24 00:49:05;;;;;;;6.25;5.07;;;9.90;99.90;;;;;;5021849;28;20067;-68
2023/03/24 00:51:37;;;;;;;7.97;4.88;;;9.70;99.90;;;;;;5044889;28;20036;-68
2023/03/24 00:54:03;;;;;;;;;;;9.80;99.90;;;;;;5041639;28;20033;-68
2023/03/24 00:56:31;;;;;;;8.35;6.05;;;9.90;99.90;;;;;;5047044;28;20001;-68
2023/03/24 00:58:57;;;;;;;10.45;7.03;;;10.10;99.90;;;;;;5042409;28;20032;-68
2023/03/24 01:01:28;;;;;;;10.57;6.70;;;10.30;99.90;;;;;;5043034;28;20056;-69
2023/03/24 01:03:55;;;;;;;8.27;5.40;;;10.40;99.90;;;;;;5015699;28;20056;-69
2023/03/24 01:06:22;;;;;;;6.47;5.30;;;10.50;99.90;;;;;;5040543;28;20857;-68
2023/03/24 01:08:52;;;;;;;9.35;5.53;;;10.40;99.90;;;;;;5016386;28;20044;-68
2023/03/24 01:11:19;;;;;;;6.80;5.63;;;10.10;99.90;;;;;;5046529;28;20060;-68
2023/03/24 01:13:45;;;;;;;7.75;5.55;;;9.90;99.90;;;;;;5046365;28;20064;-68
2023/03/24 01:16:12;;;;;;;7.72;5.43;;;9.90;99.90;;;;;;5037918;28;20048;-68
2023/03/24 01:18:39;;;;;;;7.88;5.50;;;9.90;99.90;;;;;;5048775;28;20083;-69
2023/03/24 01:21:07;;;;;;;10.50;5.90;;;10.00;99.90;;;;;;5051127;28;20029;-68
2023/03/24 01:23:33;;;;;;;6.28;5.65;;;10.20;99.90;;;;;;5049598;28;20047;-69
2023/03/24 01:26:03;;;;;;;7.00;5.03;;;10.40;99.90;;;;;;5044005;28;20549;-69
2023/03/24 01:28:29;;;;;;;6.28;5.63;;;10.50;99.90;;;;;;5051338;28;20146;-69
2023/03/24 01:30:55;;;;;;;6.78;5.82;;;10.50;99.90;;;;;;5040922;28;20059;-68
2023/03/24 01:33:21;;;;;;;8.40;5.65;;;10.40;99.90;;;;;;5051640;28;20045;-69
2023/03/24 01:35:47;;;;;;;10.38;6.05;;;10.50;99.90;;;;;;5050454;28;20468;-68
2023/03/24 01:38:13;;;;;;;9.85;6.57;;;10.50;99.90;;;;;;5049438;28;20099;-69
2023/03/24 01:40:42;;;;;;;8.27;5.72;;;10.50;99.90;;;;;;5031454;28;20083;-69
2023/03/24 01:43:25;;;;;;;7.30;6.35;;;10.50;99.90;;;;;;5048666;28;20082;-69
2023/03/24 01:45:57;;;;;;;9.35;6.75;;;10.50;99.90;;;;;;5033621;28;20040;-69
2023/03/24 01:48:29;;;;;;;7.07;4.95;;;10.50;99.90;;;;;;5042694;28;20530;-69
2023/03/24 01:51:13;;;;;;;9.55;5.97;;;10.30;99.90;;;;;;5052282;28;20504;-68
2023/03/24 01:53:46;;;;;;;6.43;5.78;;;10.20;99.90;;;;;;5053614;28;20044;-68
2023/03/24 01:56:12;;;;;;;7.07;6.07;;;10.20;99.90;;;;;;5055095;28;20092;-69
2023/03/24 01:58:42;;;;;;;8.70;7.40;;;10.20;99.90;;;;;;5051933;28;20571;-69
2023/03/24 02:01:09;;;;;;;9.82;6.47;;;10.30;99.90;;;;;;5058251;28;20137;-69
2023/03/24 02:03:38;;;;;;;8.88;7.40;;;10.40;99.90;;;;;;5044650;28;20521;-68
2023/03/24 02:06:07;;;;;;;9.52;7.05;;;10.50;99.90;;;;;;5053305;28;20453;-68
2023/03/24 02:08:41;;;;;;;7.85;6.80;;;10.70;99.90;;;;;;5051777;28;20028;-68
2023/03/24 02:11:07;;;;;;;9.13;6.80;;;10.80;99.90;;;;;;5051159;28;20042;-69
2023/03/24 02:13:33;;;;;;;10.25;7.28;;;10.90;99.90;;;;;;5050374;28;20033;-69
2023/03/24 02:16:13;;;;;;;9.32;6.97;;;11.00;99.90;;;;;;5057154;28;20117;-68
2023/03/24 02:19:36;;;;;;;9.52;6.97;;;11.00;99.90;;;;;;5054272;28;20036;-69
2023/03/24 02:22:21;;;;;;;11.93;7.88;;;11.10;99.90;;;;;;5020712;28;20049;-68
2023/03/24 02:25:05;;;;;;;9.00;7.55;;;11.10;99.90;;;;;;5055764;28;20102;-67
2023/03/24 02:27:44;;;;;;;9.93;7.45;;;11.10;99.90;;;;;;5052542;28;20122;-68
2023/03/24 02:30:47;;;;;;;10.02;7.70;;;11.20;99.90;;;;;;5045973;28;20031;-68
2023/03/24 02:33:49;;;;;;;10.35;7.43;;;11.20;99.90;;;;;;5038480;28;21080;-68
2023/03/24 02:36:40;;;;;;;9.90;6.78;;;11.20;99.90;;;;;;5048460;28;20052;-68
2023/03/24 02:39:36;;;;;;;9.07;7.53;;;11.30;99.90;;;;;;5037205;28;20460;-68
2023/03/24 02:42:26;;;;;;;8.18;7.38;;;11.30;99.90;;;;;;5050315;28;20067;-68
2023/03/24 02:45:10;;;;;;;9.40;7.78;;;11.40;99.90;;;;;;5053192;28;20071;-68
2023/03/24 02:48:02;;;;;;;9.18;7.55;;;11.40;99.90;;;;;;5055574;28;20052;-68
2023/03/24 02:50:35;;;;;;;9.65;7.32;;;11.40;99.90;;;;;;5052270;28;20124;-68
2023/03/24 02:53:22;;;;;;;9.93;7.75;;;11.40;99.90;;;;;;5047432;28;20040;-68
2023/03/24 02:55:57;;;;;;;11.15;8.10;;;11.40;99.90;;;;;;5046926;28;20029;-68
2023/03/24 02:58:47;;;;;;;11.73;8.05;;;11.50;99.90;;;;;;5052490;28;20040;-68
2023/03/24 03:01:30;;;;;;;9.80;7.97;;;11.50;99.90;;;;;;5014001;28;20044;-67
2023/03/24 03:04:01;;;;;;;8.82;7.03;;;11.40;99.90;;;;;;5012466;28;20040;-68
2023/03/24 03:06:35;;;;;;;10.77;7.05;;;11.10;99.90;;;;;;5013025;28;20535;-68
2023/03/24 03:09:06;;;;;;;8.48;6.82;;;10.80;99.90;;;;;;5011582;28;20103;-68
2023/03/24 03:11:32;;;;;;;10.38;6.97;;;10.60;99.90;;;;;;5015003;28;20045;-68
2023/03/24 03:14:07;;;;;;;8.07;7.28;;;10.40;99.90;;;;;;5013689;28;20034;-68
2023/03/24 03:16:44;;;;;;;9.63;6.80;;;10.20;99.90;;;;;;5011292;28;20044;-68
2023/03/24 03:19:24;;;;;;;9.52;7.68;;;10.10;99.90;;;;;;5011151;28;20573;-68
2023/03/24 03:21:52;;;;;;;9.68;7.43;;;10.20;99.90;;;;;;5015673;28;20037;-68
2023/03/24 03:24:29;;;;;;;8.38;7.10;;;10.20;99.90;;;;;;5013824;28;20040;-68
2023/03/24 03:27:07;;;;;;;12.18;7.25;;;10.30;99.90;;;;;;5015682;28;20115;-68
2023/03/24 03:29:38;;;;;;;9.63;7.25;;;10.40;99.90;;;;;;5010081;28;20033;-68
2023/03/24 03:32:08;;;;;;;12.23;8.38;;;10.40;99.90;;;;;;5014998;28;20053;-68
2023/03/24 03:35:05;;;;;;;7.75;6.90;;;10.30;99.90;;;;;;5013309;28;20040;-68
2023/03/24 03:37:38;;;;;;;8.80;7.90;;;10.30;99.90;;;;;;5013187;28;20053;-68
2023/03/24 03:40:12;;;;;;;17.02;11.50;;;10.20;99.90;;;;;;5014561;28;20037;-68
2023/03/24 03:42:38;;;;;;;13.77;10.15;;;10.20;99.90;;;;;;5014261;28;20037;-68
2023/03/24 03:45:06;;;;;;;14.32;9.75;;;10.20;99.90;;;;;;5016328;28;20068;-68
2023/03/24 03:47:31;;;;;;;12.98;9.73;;;10.10;99.90;;;;;;5013592;28;21065;-68
2023/03/24 03:49:57;;;;;;;12.20;9.43;;;10.20;99.90;;;;;;5012451;28;20040;-68
2023/03/24 03:52:23;;;;;;;10.02;8.55;;;10.20;99.90;;;;;;5012747;28;20076;-67
2023/03/24 03:54:50;;;;;;;9.63;8.15;;;10.20;99.90;;;;;;5012567;28;20107;-68
2023/03/24 03:57:17;;;;;;;13.85;9.27;;;10.20;99.90;;;;;;5016282;28;20032;-68
2023/03/24 03:59:43;;;;;;;11.30;8.02;;;10.20;99.90;;;;;;5025601;28;20052;-68
2023/03/24 04:02:44;;;;;;;11.27;8.98;;;10.20;99.90;;;;;;5049135;28;20040;-68
2023/03/24 04:05:50;;;;;;;11.30;9.15;;;10.10;99.90;;;;;;5051827;28;20040;-68
2023/03/24 04:08:22;;;;;;;11.55;9.57;;;10.10;99.90;;;;;;5004750;28;20052;-68
2023/03/24 04:11:12;;;;;;;10.32;8.90;;;10.00;99.90;;;;;;5057719;28;20036;-68
2023/03/24 04:13:44;;;;;;;9.45;8.48;;;9.80;99.90;;;;;;5051981;28;20802;-68
2023/03/24 04:16:51;;;;;;;11.68;9.60;;;9.70;99.90;;;;;;5047978;28;20048;-68
2023/03/24 04:19:28;;;;;;;20.63;14.45;;;9.70;99.90;;;;;;5010910;28;20034;-68
2023/03/24 04:21:57;;;;;;;38.25;21.63;;;9.90;99.90;;;;;;5051826;28;20040;-67
2023/03/24 04:24:26;;;;;;;67.03;35.05;;;10.00;99.90;;;;;;5044598;28;20052;-68
2023/03/24 04:27:37;;;;;;;120.85;61.63;;;10.00;99.90;;;;;;5050642;28;20044;-68
2023/03/24 04:30:13;;;;;;;45.40;30.33;;;10.00;99.90;;;;;;5030977;28;20079;-68
2023/03/24 04:32:45;;;;;;;46.00;32.78;;;10.00;99.90;;;;;;5052538;28;20495;-68
2023/03/24 04:35:25;;;;;;;39.33;27.67;;;10.10;99.90;;;;;;5051381;28;20047;-68
2023/03/24 04:37:53;;;;;;;20.23;16.02;;;10.10;99.90;;;;;;5031752;28;20064;-67
2023/03/24 04:40:21;;;;;;;13.73;11.05;;;10.20;99.90;;;;;;5043812;28;20037;-68
2023/03/24 04:42:53;;;;;;;11.68;9.20;;;10.20;99.90;;;;;;5051272;28;20363;-68
2023/03/24 04:45:24;;;;;;;10.50;9.40;;;10.30;99.90;;;;;;5050712;28;20464;-68
2023/03/24 04:47:57;;;;;;;12.07;9.10;;;10.30;99.90;;;;;;5045970;28;20052;-68
2023/03/24 04:50:38;;;;;;;12.65;9.77;;;10.40;99.90;;;;;;5056580;28;20078;-68
2023/03/24 04:53:06;;;;;;;12.20;9.43;;;10.40;99.90;;;;;;5051888;28;20040;-68
2023/03/24 04:55:49;;;;;;;11.38;8.50;;;10.40;99.90;;;;;;5054106;28;20237;-68
2023/03/24 04:58:20;;;;;;;11.55;9.93;;;10.40;99.90;;;;;;5055448;28;20512;-70
2023/03/24 05:00:47;;;;;;;13.63;9.88;;;10.40;99.90;;;;;;4999642;28;1468681;-67
2023/03/24 05:03:14;;;;;;;11.75;9.25;;;10.40;99.90;;;;;;5051013;28;20044;-68
2023/03/24 05:05:44;;;;;;;15.40;9.50;;;10.40;99.90;;;;;;5036212;28;20036;-68
2023/03/24 05:08:10;;;;;;;12.57;10.05;;;10.40;99.90;;;;;;5056653;28;20416;-68
2023/03/24 05:10:37;;;;;;;14.82;9.45;;;10.60;99.90;;;;;;5058779;28;20484;-68
2023/03/24 05:13:04;;;;;;;13.70;9.93;;;10.60;99.90;;;;;;5052031;28;20119;-69
2023/03/24 05:15:30;;;;;;;15.27;11.77;;;10.40;99.90;;;;;;5047299;28;20072;-69
2023/03/24 05:17:56;;;;;;;18.73;11.50;;;10.40;99.90;;;;;;5051349;28;20052;-69
2023/03/24 05:20:23;;;;;;;24.88;18.95;;;10.40;99.90;;;;;;5058036;28;20033;-69
2023/03/24 05:22:49;;;;;;;32.33;21.80;;;10.40;99.90;;;;;;5058388;28;20115;-69
2023/03/24 05:25:15;;;;;;;25.73;15.93;;;10.40;99.90;;;;;;5056419;28;20035;-69
2023/03/24 05:27:42;;;;;;;25.10;15.90;;;10.30;99.90;;;;;;5059271;28;20044;-69
2023/03/24 05:30:08;;;;;;;20.30;13.68;;;10.20;99.90;;;;;;5050599;28;20044;-68
2023/03/24 05:32:34;;;;;;;15.48;12.20;;;10.20;99.90;;;;;;5059632;28;20037;-68
2023/03/24 05:35:00;;;;;;;14.20;9.25;;;10.20;99.90;;;;;;5055643;28;20028;-69
2023/03/24 05:37:26;;;;;;;13.60;10.40;;;10.20;99.90;;;;;;5056382;28;20044;-69
2023/03/24 05:39:52;;;;;;;17.33;10.07;;;10.10;99.90;;;;;;5053191;28;20519;-69
2023/03/24 05:42:19;;;;;;;23.10;10.13;;;10.00;99.90;;;;;;5057786;28;20090;-68
2023/03/24 05:44:45;;;;;;;12.15;9.05;;;9.90;99.90;;;;;;5049975;28;20041;-68
2023/03/24 05:47:14;;;;;;;15.93;9.90;;;10.00;99.90;;;;;;5055664;28;20221;-68
2023/03/24 05:49:44;;;;;;;19.83;10.35;;;10.10;99.90;;;;;;5056578;28;20143;-68
2023/03/24 05:52:10;;;;;;;14.85;10.27;;;10.10;99.90;;;;;;5053843;28;20033;-68
2023/03/24 05:54:38;;;;;;;18.92;10.45;;;10.20;99.90;;;;;;5054819;28;20045;-69
2023/03/24 05:57:09;;;;;;;20.42;10.77;;;10.20;99.90;;;;;;5055633;28;20063;-69
2023/03/24 05:59:36;;;;;;;16.08;10.80;;;10.20;99.90;;;;;;5054751;28;20056;-69
2023/03/24 06:02:03;;;;;;;14.75;10.38;;;10.30;99.90;;;;;;5042357;28;20686;-69
2023/03/24 06:04:29;;;;;;;12.52;10.43;;;10.40;99.90;;;;;;5050652;28;20036;-70
2023/03/24 06:06:57;;;;;;;13.07;10.80;;;10.40;99.90;;;;;;5048594;28;20067;-69
2023/03/24 06:09:27;;;;;;;11.95;10.75;;;10.50;99.90;;;;;;5043910;28;20099;-69
2023/03/24 06:11:54;;;;;;;13.55;9.75;;;10.50;99.90;;;;;;5053903;28;20021;-70
2023/03/24 06:14:20;;;;;;;12.55;10.52;;;10.70;99.90;;;;;;5053557;28;20115;-68
2023/03/24 06:16:48;;;;;;;12.98;11.13;;;10.90;99.90;;;;;;5052652;28;20062;-69
2023/03/24 06:19:15;;;;;;;13.40;10.02;;;11.10;99.90;;;;;;5051379;28;20131;-70
2023/03/24 06:21:41;;;;;;;13.02;11.05;;;11.10;99.90;;;;;;5058833;28;20194;-69
2023/03/24 06:24:06;;;;;;;14.25;11.50;;;11.20;99.90;;;;;;5056457;28;20040;-70
2023/03/24 06:26:33;;;;;;;12.80;11.45;;;11.30;99.90;;;;;;5053162;28;20047;-70
2023/03/24 06:28:58;;;;;;;14.57;12.38;;;11.40;99.90;;;;;;5053329;28;20037;-71
2023/03/24 06:31:28;;;;;;;12.60;11.30;;;11.40;99.90;;;;;;5055024;28;20086;-69
2023/03/24 06:33:54;;;;;;;13.57;11.82;;;11.60;99.90;;;;;;5051401;28;21974;-70
2023/03/24 06:36:19;;;;;;;19.75;12.75;;;11.70;99.90;;;;;;5057691;28;20039;-69
2023/03/24 06:38:45;;;;;;;13.73;11.80;;;11.90;99.90;;;;;;5053360;28;20102;-69
2023/03/24 06:41:11;;;;;;;18.98;11.35;;;12.10;99.90;;;;;;5051120;28;20044;-69
2023/03/24 06:43:36;;;;;;;16.95;11.68;;;12.20;99.90;;;;;;5054314;28;20036;-70
2023/03/24 06:46:02;;;;;;;13.18;11.80;;;12.50;99.90;;;;;;5051791;28;20041;-69
2023/03/24 06:48:28;;;;;;;13.60;12.18;;;12.60;99.90;;;;;;5049758;28;20487;-69
2023/03/24 06:50:54;;;;;;;14.30;11.85;;;12.80;99.90;;;;;;5048428;28;20116;-69
2023/03/24 06:53:21;;;;;;;12.57;9.30;;;13.00;99.90;;;;;;5053665;28;20052;-69
2023/03/24 06:55:48;;;;;;;11.57;10.02;;;13.20;99.90;;;;;;5057357;28;20040;-69
2023/03/24 06:58:14;;;;;;;12.90;10.98;;;13.30;99.90;;;;;;5050112;28;20484;-70
2023/03/24 07:00:41;;;;;;;14.23;11.15;;;13.50;99.90;;;;;;5048818;28;20048;-71
2023/03/24 07:03:07;;;;;;;13.02;10.05;;;13.60;99.90;;;;;;5032219;28;20032;-71
2023/03/24 07:05:40;;;;;;;10.23;9.10;;;13.80;99.90;;;;;;5054621;28;20044;-71
2023/03/24 07:08:06;;;;;;;9.70;8.50;;;13.80;99.90;;;;;;5053835;28;20127;-70
2023/03/24 07:10:32;;;;;;;10.63;9.30;;;13.90;99.90;;;;;;5053055;28;20074;-70
2023/03/24 07:13:00;;;;;;;13.05;8.65;;;14.00;99.90;;;;;;5052848;28;20087;-70
2023/03/24 07:15:25;;;;;;;13.18;9.13;;;14.10;99.90;;;;;;5050964;28;20142;-71
2023/03/24 07:17:51;;;;;;;11.63;9.23;;;14.20;99.90;;;;;;5047753;28;20419;-71
2023/03/24 07:20:17;;;;;;;11.75;8.13;;;14.20;99.90;;;;;;5050032;28;20033;-70
2023/03/24 07:22:42;;;;;;;11.82;8.43;;;14.30;99.90;;;;;;5040616;28;20083;-70
2023/03/24 07:25:08;;;;;;;9.35;8.35;;;14.30;99.90;;;;;;5053289;28;20062;-70
2023/03/24 07:27:34;;;;;;;9.52;8.52;;;14.30;99.90;;;;;;5047614;28;20033;-69
2023/03/24 07:30:01;;;;;;;8.90;7.95;;;14.40;99.90;;;;;;5042404;28;20020;-70
2023/03/24 07:32:29;;;;;;;11.43;8.75;;;14.40;99.90;;;;;;5047648;28;20569;-69
2023/03/24 07:34:56;;;;;;;12.85;8.38;;;14.50;99.90;;;;;;5049185;28;20048;-70
2023/03/24 07:37:22;;;;;;;11.70;9.82;;;14.50;99.90;;;;;;5035536;28;20036;-69
2023/03/24 07:39:47;;;;;;;11.43;8.35;;;14.60;99.90;;;;;;5051716;28;20091;-69
2023/03/24 07:42:13;;;;;;;11.77;8.80;;;14.70;99.90;;;;;;5051510;28;20126;-70
2023/03/24 07:44:39;;;;;;;11.05;9.70;;;14.70;99.90;;;;;;5046830;28;20622;-70
2023/03/24 07:47:04;;;;;;;10.85;8.45;;;14.90;99.90;;;;;;5046485;28;20064;-70
2023/03/24 07:49:30;;;;;;;10.00;9.00;;;14.90;99.90;;;;;;5047408;28;20090;-70
2023/03/24 07:51:57;;;;;;;10.10;8.85;;;14.90;99.90;;;;;;5048484;28;20441;-71
2023/03/24 07:54:24;;;;;;;13.23;9.10;;;15.10;99.90;;;;;;5051808;28;20106;-68
2023/03/24 07:56:49;;;;;;;12.23;8.93;;;15.20;99.90;;;;;;5043159;28;20029;-68
2023/03/24 07:59:16;;;;;;;11.43;8.48;;;15.40;99.90;;;;;;5046038;28;20051;-68
2023/03/24 08:01:42;;;;;;;10.05;8.13;;;15.50;99.90;;;;;;5045453;28;20041;-67
2023/03/24 08:04:12;;;;;;;9.90;8.30;;;15.60;99.90;;;;;;5050516;28;20059;-69
2023/03/24 08:06:39;;;;;;;9.70;8.40;;;15.70;99.90;;;;;;5051094;28;20165;-69
2023/03/24 08:09:04;;;;;;;10.18;8.55;;;15.80;99.90;;;;;;5054110;28;20296;-69
2023/03/24 08:11:30;;;;;;;10.23;8.75;;;15.90;99.90;;;;;;5052986;28;20732;-69
2023/03/24 08:13:57;;;;;;;10.68;8.27;;;15.90;99.90;;;;;;5055602;28;20600;-69
2023/03/24 08:16:23;;;;;;;10.60;7.75;;;16.00;99.90;;;;;;5052356;28;20040;-68
2023/03/24 08:18:49;;;;;;;20.05;8.57;;;16.00;99.90;;;;;;5048870;28;20087;-70
2023/03/24 08:21:15;;;;;;;9.43;8.52;;;15.90;99.90;;;;;;5040941;28;21862;-72
2023/03/24 08:23:41;;;;;;;10.55;8.27;;;16.00;99.90;;;;;;5047181;28;20493;-71
2023/03/24 08:26:09;;;;;;;11.38;8.93;;;16.10;99.90;;;;;;5048713;28;20698;-68
2023/03/24 08:28:36;;;;;;;10.43;9.23;;;16.20;99.90;;;;;;5038498;28;20044;-71
2023/03/24 08:31:02;;;;;;;11.73;8.63;;;16.30;99.90;;;;;;5050079;28;20044;-69
2023/03/24 08:33:28;;;;;;;10.77;8.85;;;16.20;99.90;;;;;;5051145;28;20048;-69
2023/03/24 08:35:57;;;;;;;9.48;8.23;;;16.10;99.90;;;;;;5052168;28;20041;-70
2023/03/24 08:38:29;;;;;;;11.43;8.60;;;16.20;99.90;;;;;;5056053;28;20029;-68
2023/03/24 08:40:57;;;;;;;9.38;8.05;;;16.40;99.90;;;;;;5049077;28;20106;-68
2023/03/24 08:43:24;;;;;;;11.27;7.88;;;16.50;99.90;;;;;;5053265;28;20041;-68
2023/03/24 08:45:50;;;;;;;11.45;8.30;;;16.60;99.90;;;;;;5048045;28;20050;-68
2023/03/24 08:48:16;;;;;;;9.45;8.50;;;16.70;99.90;;;;;;5055716;28;20053;-68
2023/03/24 08:50:42;;;;;;;10.38;8.23;;;16.90;99.90;;;;;;5049560;28;20090;-67
2023/03/24 08:53:10;;;;;;;12.50;7.57;;;17.00;99.90;;;;;;5056866;28;20051;-66
2023/03/24 08:55:40;;;;;;;9.23;7.75;;;17.10;99.90;;;;;;5056039;28;20098;-67
2023/03/24 08:58:07;;;;;;;10.23;8.20;;;17.30;99.60;;;;;;5028254;28;20039;-67
2023/03/24 09:00:33;;;;;;;10.32;8.20;;;17.30;99.30;;;;;;5048385;28;20053;-67
2023/03/24 09:03:00;;;;;;;8.90;8.00;;;17.40;99.10;;;;;;5052358;28;20135;-68
2023/03/24 09:05:26;;;;;;;9.77;8.32;;;17.30;98.80;;;;;;5046453;28;20558;-68
2023/03/24 09:07:52;;;;;;;10.30;8.35;;;17.40;99.10;;;;;;5050156;28;20040;-68
2023/03/24 09:10:18;;;;;;;9.88;7.90;;;17.30;99.10;;;;;;5034804;28;20750;-68
2023/03/24 09:12:45;;;;;;;10.23;8.27;;;17.30;99.00;;;;;;5054039;28;20037;-67
2023/03/24 09:15:12;;;;;;;11.07;7.70;;;17.30;99.20;;;;;;5049790;28;20159;-68
2023/03/24 09:17:38;;;;;;;9.10;8.20;;;17.30;99.40;;;;;;5049516;28;20032;-68
2023/03/24 09:20:10;;;;;;;10.50;9.43;;;17.50;99.00;;;;;;5044062;28;20111;-67
2023/03/24 09:22:37;;;;;;;9.15;8.20;;;17.60;97.90;;;;;;5032104;28;20052;-67
2023/03/24 09:25:03;;;;;;;11.55;8.48;;;17.70;98.10;;;;;;5051409;28;20027;-70
2023/03/24 09:27:30;;;;;;;7.22;6.53;;;17.90;97.00;;;;;;5043006;28;20044;-70
2023/03/24 09:29:55;;;;;;;9.88;7.10;;;18.00;96.90;;;;;;5049074;28;20040;-69
2023/03/24 09:32:21;;;;;;;7.75;6.93;;;18.00;95.30;;;;;;5046889;28;20122;-69
2023/03/24 09:34:47;;;;;;;8.30;5.63;;;18.00;95.00;;;;;;5040322;28;20029;-70
2023/03/24 09:37:13;;;;;;;8.85;5.68;;;18.00;93.70;;;;;;5049743;28;20107;-70
2023/03/24 09:39:38;;;;;;;7.53;6.03;;;18.10;91.60;;;;;;5043953;28;20041;-70
2023/03/24 09:42:05;;;;;;;8.73;6.13;;;17.90;90.80;;;;;;5052763;28;20024;-68
2023/03/24 09:44:42;;;;;;;7.63;5.88;;;17.80;91.00;;;;;;5051912;28;20031;-69
2023/03/24 09:47:25;;;;;;;8.43;6.72;;;17.80;91.00;;;;;;5043812;28;20048;-69
2023/03/24 09:49:52;;;;;;;8.38;6.45;;;17.80;91.40;;;;;;5041568;28;20056;-68
2023/03/24 09:52:31;;;;;;;11.57;6.35;;;18.00;91.60;;;;;;5051945;28;20040;-68
2023/03/24 09:55:01;;;;;;;11.10;6.28;;;18.10;90.50;;;;;;5045195;28;20036;-69
2023/03/24 09:57:39;;;;;;;17.55;7.30;;;18.00;90.40;;;;;;5056030;28;21400;-71
2023/03/24 10:00:19;;;;;;;11.27;6.55;;;18.10;89.60;;;;;;5043058;28;20042;-71
2023/03/24 10:02:45;;;;;;;9.15;6.03;;;18.10;88.50;;;;;;5046999;28;20036;-78
2023/03/24 10:05:36;;;;;;;13.10;6.15;;;18.10;90.00;;;;;;5053818;28;20147;-77
2023/03/24 10:08:26;;;;;;;7.72;6.35;;;18.10;90.00;;;;;;5033191;28;20052;-74
2023/03/24 10:10:58;;;;;;;7.38;5.97;;;18.30;89.10;;;;;;5041750;28;20037;-74
2023/03/24 10:13:42;;;;;;;12.20;6.47;;;18.30;87.30;;;;;;5048119;28;20044;-70
2023/03/24 10:16:34;;;;;;;10.70;5.18;;;18.30;89.50;;;;;;5044656;28;20151;-68
2023/03/24 10:19:21;;;;;;;8.95;5.40;;;18.50;85.40;;;;;;5014170;28;20554;-67
2023/03/24 10:21:56;;;;;;;11.38;5.97;;;18.60;83.10;;;;;;5065823;28;20049;-68
2023/03/24 10:24:38;;;;;;;5.95;4.40;;;18.60;82.40;;;;;;5041529;28;20247;-69
2023/03/24 10:27:40;;;;;;;7.80;4.95;;;18.50;82.00;;;;;;5054067;28;20064;-68
2023/03/24 10:30:18;;;;;;;8.95;4.80;;;18.50;81.20;;;;;;5049364;28;20907;-70
2023/03/24 10:32:44;;;;;;;6.80;5.13;;;18.50;81.90;;;;;;5047143;28;20037;-69
2023/03/24 10:35:18;;;;;;;8.02;5.45;;;18.60;81.80;;;;;;5051076;28;20025;-69
2023/03/24 10:37:44;;;;;;;6.80;5.00;;;18.70;81.60;;;;;;5050603;28;20029;-67
2023/03/24 10:40:16;;;;;;;7.85;4.80;;;18.90;80.90;;;;;;5040460;28;20747;-70
2023/03/24 10:42:44;;;;;;;7.03;4.82;;;18.90;80.60;;;;;;5047660;28;20579;-70
2023/03/24 10:45:18;;;;;;;9.75;5.10;;;18.90;78.80;;;;;;5045947;28;20040;-69
2023/03/24 10:47:46;;;;;;;15.90;4.97;;;18.90;79.10;;;;;;5045414;28;20040;-69
2023/03/24 10:50:12;;;;;;;14.95;5.45;;;18.90;78.70;;;;;;5052565;28;20069;-69
2023/03/24 10:52:40;;;;;;;12.10;5.63;;;18.90;79.10;;;;;;5045914;28;20732;-67
2023/03/24 10:55:06;;;;;;;7.57;4.78;;;19.00;77.50;;;;;;5048316;28;20123;-68
2023/03/24 10:57:33;;;;;;;7.00;5.03;;;19.00;76.80;;;;;;5044667;28;20028;-67
2023/03/24 11:00:18;;;;;;;9.35;5.70;;;19.00;77.40;;;;;;5048646;28;20041;-68
2023/03/24 11:02:51;;;;;;;7.38;5.30;;;19.00;79.00;;;;;;5042545;28;20451;-69
2023/03/24 11:05:21;;;;;;;8.60;5.40;;;19.20;77.20;;;;;;5044086;28;20114;-67
2023/03/24 11:07:49;;;;;;;8.52;4.65;;;19.20;77.30;;;;;;5050274;28;20052;-67
2023/03/24 11:10:24;;;;;;;8.65;5.03;;;19.20;77.20;;;;;;5044133;28;20738;-66
2023/03/24 11:12:52;;;;;;;10.48;5.13;;;19.40;77.00;;;;;;5047073;28;20064;-68
2023/03/24 11:15:22;;;;;;;7.93;5.10;;;19.50;75.80;;;;;;5046530;28;20036;-67
2023/03/24 11:18:00;;;;;;;7.95;5.10;;;19.60;74.00;;;;;;5052511;28;20060;-67
2023/03/24 11:20:40;;;;;;;7.70;4.60;;;19.50;74.30;;;;;;5042066;28;20037;-68
2023/03/24 11:23:09;;;;;;;10.90;5.30;;;19.40;73.60;;;;;;5046618;28;20044;-68
2023/03/24 11:25:38;;;;;;;7.43;4.82;;;19.50;74.20;;;;;;5042614;28;20350;-69
2023/03/24 11:28:13;;;;;;;8.48;4.97;;;19.50;75.10;;;;;;5046383;28;20079;-68
2023/03/24 11:30:50;;;;;;;12.82;5.78;;;19.60;74.70;;;;;;5050350;28;20041;-68
2023/03/24 11:33:27;;;;;;;8.80;4.95;;;19.90;72.80;;;;;;5045410;28;20123;-69
2023/03/24 11:35:53;;;;;;;12.27;4.95;;;20.00;72.50;;;;;;5042788;28;20029;-68
2023/03/24 11:38:31;;;;;;;11.90;4.75;;;20.10;73.00;;;;;;5048050;28;20032;-69
2023/03/24 11:41:00;;;;;;;12.93;5.45;;;20.30;72.80;;;;;;5048141;28;20035;-70
2023/03/24 11:43:26;;;;;;;9.05;5.53;;;20.20;71.70;;;;;;5051277;28;20106;-69
2023/03/24 11:46:06;;;;;;;10.30;5.90;;;20.10;72.30;;;;;;5049939;28;20040;-72
2023/03/24 11:48:39;;;;;;;8.82;5.88;;;20.00;71.70;;;;;;5056802;28;20053;-68
2023/03/24 11:51:07;;;;;;;10.57;5.35;;;20.00;74.00;;;;;;5048079;28;20032;-70
2023/03/24 11:53:46;;;;;;;9.50;5.93;;;20.00;72.60;;;;;;5046405;28;20046;-69
2023/03/24 11:56:19;;;;;;;10.60;5.78;;;20.00;72.80;;;;;;5049235;28;20028;-73
2023/03/24 11:58:55;;;;;;;7.57;6.00;;;20.00;71.70;;;;;;5034325;28;20071;-70
2023/03/24 12:01:20;;;;;;;10.23;5.68;;;20.10;73.50;;;;;;5048435;28;20765;-69
2023/03/24 12:03:49;;;;;;;10.63;6.10;;;20.10;72.90;;;;;;5056929;28;20555;-70
2023/03/24 12:06:33;;;;;;;10.70;6.40;;;20.10;73.30;;;;;;5050637;28;20049;-68
2023/03/24 12:09:20;;;;;;;9.75;5.72;;;20.20;74.00;;;;;;5044056;28;20037;-68
2023/03/24 12:12:01;;;;;;;9.13;5.38;;;20.40;74.30;;;;;;5027075;28;20458;-70
2023/03/24 12:14:45;;;;;;;8.75;5.43;;;20.50;72.50;;;;;;5031598;28;20127;-70
2023/03/24 12:17:21;;;;;;;9.00;5.72;;;20.60;72.20;;;;;;5054028;28;20040;-70
2023/03/24 12:20:18;;;;;;;11.45;5.50;;;20.30;71.90;;;;;;5051832;28;20070;-69
2023/03/24 12:22:59;;;;;;;7.85;5.50;;;20.20;73.00;;;;;;5033977;28;20129;-70
2023/03/24 12:25:36;;;;;;;10.10;5.40;;;20.20;73.10;;;;;;5047338;28;20123;-70
2023/03/24 12:28:15;;;;;;;8.30;6.53;;;20.10;73.80;;;;;;5048035;28;20041;-69
2023/03/24 12:31:07;;;;;;;6.25;5.13;;;20.20;73.00;;;;;;5047784;28;20039;-69
2023/03/24 12:33:44;;;;;;;8.70;5.70;;;20.20;74.40;;;;;;5050343;28;20052;-69
2023/03/24 12:36:19;;;;;;;8.57;5.45;;;20.30;74.00;;;;;;5042345;28;20070;-69
2023/03/24 12:38:50;;;;;;;7.57;5.78;;;20.30;72.40;;;;;;5051379;28;20068;-70
2023/03/24 12:41:28;;;;;;;7.05;5.70;;;20.30;73.90;;;;;;5042893;28;20036;-70
2023/03/24 12:44:04;;;;;;;13.70;5.10;;;20.50;73.20;;;;;;5052151;28;20029;-70
2023/03/24 12:47:04;;;;;;;12.02;6.30;;;20.50;72.10;;;;;;5051418;28;20541;-68
2023/03/24 12:49:47;;;;;;;13.10;5.30;;;20.50;72.80;;;;;;5051084;28;20049;-69
2023/03/24 12:52:30;;;;;;;11.55;5.85;;;20.50;73.40;;;;;;5035381;28;20040;-70
2023/03/24 12:55:37;;;;;;;8.30;4.90;;;20.60;74.80;;;;;;5054015;28;20139;-68
2023/03/24 12:58:26;;;;;;;7.45;4.55;;;20.60;72.60;;;;;;4970776;28;20089;-69
2023/03/24 13:01:31;;;;;;;7.40;4.60;;;20.60;72.70;;;;;;5038645;28;20484;-70
2023/03/24 13:04:17;;;;;;;5.78;4.45;;;20.50;72.50;;;;;;5048542;28;20117;-69
2023/03/24 13:07:18;;;;;;;8.00;4.90;;;20.40;72.30;;;;;;5024382;28;20257;-69